<?xml version="1.0" encoding="UTF-8" standalone="no" ?><gpx xmlns="http://www.topografix.com/GPX/1/1" xmlns:gpxx="http://www.garmin.com/xmlschemas/GpxExtensions/v3" xmlns:wptx1="http://www.garmin.com/xmlschemas/WaypointExtension/v1" xmlns:gpxtpx="http://www.garmin.com/xmlschemas/TrackPointExtension/v1" creator="GuideVTT.com" version="1.1" xmlns:xsi="http://www.w3.org/2001/XMLSchema-instance" xsi:schemaLocation="http://www.topografix.com/GPX/1/1 http://www.topografix.com/GPX/1/1/gpx.xsd http://www.garmin.com/xmlschemas/GpxExtensions/v3 http://www8.garmin.com/xmlschemas/GpxExtensionsv3.xsd http://www.garmin.com/xmlschemas/WaypointExtension/v1 http://www8.garmin.com/xmlschemas/WaypointExtensionv1.xsd http://www.garmin.com/xmlschemas/TrackPointExtension/v1 http://www.garmin.com/xmlschemas/TrackPointExtensionv1.xsd">
<metadata><link href="http://www.garmin.com"><text>Garmin International</text></link><time>2013-06-22T15:13:50Z</time></metadata>
<trk><name>rp_sortie10b.gpx</name><extensions><gpxx:TrackExtension><gpxx:DisplayColor>Cyan</gpxx:DisplayColor></gpxx:TrackExtension></extensions><trkseg>
<trkpt lat="47.33689070" lon="7.24415302"><ele></ele><time>2014-7-4T2:54:44Z</time></trkpt>
<trkpt lat="47.33581781" lon="7.24447489"><ele></ele><time>2014-7-4T2:54:47Z</time></trkpt>
<trkpt lat="47.33547449" lon="7.24368095"><ele></ele><time>2014-7-4T2:54:50Z</time></trkpt>
<trkpt lat="47.33435869" lon="7.24200726"><ele></ele><time>2014-7-4T2:54:53Z</time></trkpt>
<trkpt lat="47.33410120" lon="7.24142790"><ele></ele><time>2014-7-4T2:54:56Z</time></trkpt>
<trkpt lat="47.33277082" lon="7.23694324"><ele></ele><time>2014-7-4T2:54:59Z</time></trkpt>
<trkpt lat="47.33221292" lon="7.23578453"><ele></ele><time>2014-7-4T2:55:2Z</time></trkpt>
<trkpt lat="47.33208418" lon="7.23466873"><ele></ele><time>2014-7-4T2:55:5Z</time></trkpt>
<trkpt lat="47.33156919" lon="7.23269463"><ele></ele><time>2014-7-4T2:55:8Z</time></trkpt>
<trkpt lat="47.33079672" lon="7.23069906"><ele></ele><time>2014-7-4T2:55:11Z</time></trkpt>
<trkpt lat="47.32998133" lon="7.22919703"><ele></ele><time>2014-7-4T2:55:14Z</time></trkpt>
<trkpt lat="47.32972383" lon="7.22844601"><ele></ele><time>2014-7-4T2:55:17Z</time></trkpt>
<trkpt lat="47.32970238" lon="7.22681522"><ele></ele><time>2014-7-4T2:55:20Z</time></trkpt>
<trkpt lat="47.32772827" lon="7.22490549"><ele></ele><time>2014-7-4T2:55:23Z</time></trkpt>
<trkpt lat="47.32736349" lon="7.22404718"><ele></ele><time>2014-7-4T2:55:26Z</time></trkpt>
<trkpt lat="47.32697725" lon="7.22366095"><ele></ele><time>2014-7-4T2:55:29Z</time></trkpt>
<trkpt lat="47.32521772" lon="7.22269535"><ele></ele><time>2014-7-4T2:55:32Z</time></trkpt>
<trkpt lat="47.32395172" lon="7.22134352"><ele></ele><time>2014-7-4T2:55:35Z</time></trkpt>
<trkpt lat="47.32453108" lon="7.22185850"><ele></ele><time>2014-7-4T2:55:38Z</time></trkpt>
<trkpt lat="47.32459545" lon="7.22170830"><ele></ele><time>2014-7-4T2:55:41Z</time></trkpt>
<trkpt lat="47.32335091" lon="7.21868277"><ele></ele><time>2014-7-4T2:55:44Z</time></trkpt>
<trkpt lat="47.32251406" lon="7.21778154"><ele></ele><time>2014-7-4T2:55:47Z</time></trkpt>
<trkpt lat="47.32116222" lon="7.21745968"><ele></ele><time>2014-7-4T2:55:50Z</time></trkpt>
<trkpt lat="47.32081890" lon="7.21765280"><ele></ele><time>2014-7-4T2:55:53Z</time></trkpt>
<trkpt lat="47.32043266" lon="7.21846819"><ele></ele><time>2014-7-4T2:55:56Z</time></trkpt>
<trkpt lat="47.32015371" lon="7.21827507"><ele></ele><time>2014-7-4T2:55:59Z</time></trkpt>
<trkpt lat="47.31974602" lon="7.21754551"><ele></ele><time>2014-7-4T2:56:2Z</time></trkpt>
<trkpt lat="47.31890917" lon="7.21720219"><ele></ele><time>2014-7-4T2:56:5Z</time></trkpt>
<trkpt lat="47.31869459" lon="7.21683741"><ele></ele><time>2014-7-4T2:56:8Z</time></trkpt>
<trkpt lat="47.31809378" lon="7.21647263"><ele></ele><time>2014-7-4T2:56:11Z</time></trkpt>
<trkpt lat="47.31530428" lon="7.21585035"><ele></ele><time>2014-7-4T2:56:14Z</time></trkpt>
<trkpt lat="47.31459618" lon="7.21544266"><ele></ele><time>2014-7-4T2:56:17Z</time></trkpt>
<trkpt lat="47.31384516" lon="7.21546412"><ele></ele><time>2014-7-4T2:56:20Z</time></trkpt>
<trkpt lat="47.31294394" lon="7.21612930"><ele></ele><time>2014-7-4T2:56:23Z</time></trkpt>
<trkpt lat="47.31343746" lon="7.21726656"><ele></ele><time>2014-7-4T2:56:26Z</time></trkpt>
<trkpt lat="47.31401682" lon="7.21801758"><ele></ele><time>2014-7-4T2:56:29Z</time></trkpt>
<trkpt lat="47.31470346" lon="7.21853256"><ele></ele><time>2014-7-4T2:56:32Z</time></trkpt>
<trkpt lat="47.31708527" lon="7.21941233"><ele></ele><time>2014-7-4T2:56:35Z</time></trkpt>
<trkpt lat="47.31854439" lon="7.21951962"><ele></ele><time>2014-7-4T2:56:38Z</time></trkpt>
<trkpt lat="47.31897354" lon="7.21921921"><ele></ele><time>2014-7-4T2:56:41Z</time></trkpt>
<trkpt lat="47.31925249" lon="7.21928358"><ele></ele><time>2014-7-4T2:56:44Z</time></trkpt>
<trkpt lat="47.31938124" lon="7.22057104"><ele></ele><time>2014-7-4T2:56:47Z</time></trkpt>
<trkpt lat="47.32000351" lon="7.22192287"><ele></ele><time>2014-7-4T2:56:50Z</time></trkpt>
<trkpt lat="47.32002497" lon="7.22213745"><ele></ele><time>2014-7-4T2:56:53Z</time></trkpt>
<trkpt lat="47.31974602" lon="7.22196579"><ele></ele><time>2014-7-4T2:56:56Z</time></trkpt>
<trkpt lat="47.31978893" lon="7.22235203"><ele></ele><time>2014-7-4T2:56:59Z</time></trkpt>
<trkpt lat="47.32000351" lon="7.22252369"><ele></ele><time>2014-7-4T2:57:2Z</time></trkpt>
<trkpt lat="47.32034683" lon="7.22243786"><ele></ele><time>2014-7-4T2:57:5Z</time></trkpt>
<trkpt lat="47.32015371" lon="7.22280264"><ele></ele><time>2014-7-4T2:57:8Z</time></trkpt>
<trkpt lat="47.31959581" lon="7.22286701"><ele></ele><time>2014-7-4T2:57:11Z</time></trkpt>
<trkpt lat="47.31884480" lon="7.22132206"><ele></ele><time>2014-7-4T2:57:14Z</time></trkpt>
<trkpt lat="47.31899500" lon="7.22269535"><ele></ele><time>2014-7-4T2:57:17Z</time></trkpt>
<trkpt lat="47.31925249" lon="7.22258806"><ele></ele><time>2014-7-4T2:57:20Z</time></trkpt>
<trkpt lat="47.31910229" lon="7.22245932"><ele></ele><time>2014-7-4T2:57:23Z</time></trkpt>
<trkpt lat="47.31972456" lon="7.22331762"><ele></ele><time>2014-7-4T2:57:26Z</time></trkpt>
<trkpt lat="47.31927395" lon="7.22303867"><ele></ele><time>2014-7-4T2:57:29Z</time></trkpt>
<trkpt lat="47.31910229" lon="7.22271681"><ele></ele><time>2014-7-4T2:57:32Z</time></trkpt>
<trkpt lat="47.31918812" lon="7.22333908"><ele></ele><time>2014-7-4T2:57:35Z</time></trkpt>
<trkpt lat="47.31968164" lon="7.22411156"><ele></ele><time>2014-7-4T2:57:38Z</time></trkpt>
<trkpt lat="47.31888771" lon="7.22383261"><ele></ele><time>2014-7-4T2:57:41Z</time></trkpt>
<trkpt lat="47.31852293" lon="7.22342491"><ele></ele><time>2014-7-4T2:57:44Z</time></trkpt>
<trkpt lat="47.31875896" lon="7.22417593"><ele></ele><time>2014-7-4T2:57:47Z</time></trkpt>
<trkpt lat="47.31912374" lon="7.22462654"><ele></ele><time>2014-7-4T2:57:50Z</time></trkpt>
<trkpt lat="47.31950998" lon="7.22479820"><ele></ele><time>2014-7-4T2:57:53Z</time></trkpt>
<trkpt lat="47.31955290" lon="7.22499132"><ele></ele><time>2014-7-4T2:57:56Z</time></trkpt>
<trkpt lat="47.31860876" lon="7.22471237"><ele></ele><time>2014-7-4T2:57:59Z</time></trkpt>
<trkpt lat="47.31811523" lon="7.22404718"><ele></ele><time>2014-7-4T2:58:2Z</time></trkpt>
<trkpt lat="47.31807232" lon="7.22372532"><ele></ele><time>2014-7-4T2:58:5Z</time></trkpt>
<trkpt lat="47.31830835" lon="7.22509861"><ele></ele><time>2014-7-4T2:58:8Z</time></trkpt>
<trkpt lat="47.31884480" lon="7.22572088"><ele></ele><time>2014-7-4T2:58:11Z</time></trkpt>
<trkpt lat="47.31824398" lon="7.22542048"><ele></ele><time>2014-7-4T2:58:14Z</time></trkpt>
<trkpt lat="47.31792212" lon="7.22505569"><ele></ele><time>2014-7-4T2:58:17Z</time></trkpt>
<trkpt lat="47.31749296" lon="7.22398281"><ele></ele><time>2014-7-4T2:58:20Z</time></trkpt>
<trkpt lat="47.31672049" lon="7.22389698"><ele></ele><time>2014-7-4T2:58:23Z</time></trkpt>
<trkpt lat="47.31667757" lon="7.22271681"><ele></ele><time>2014-7-4T2:58:26Z</time></trkpt>
<trkpt lat="47.31652737" lon="7.22271681"><ele></ele><time>2014-7-4T2:58:29Z</time></trkpt>
<trkpt lat="47.31611967" lon="7.22421885"><ele></ele><time>2014-7-4T2:58:32Z</time></trkpt>
<trkpt lat="47.31601238" lon="7.22318888"><ele></ele><time>2014-7-4T2:58:35Z</time></trkpt>
<trkpt lat="47.31579781" lon="7.22295284"><ele></ele><time>2014-7-4T2:58:38Z</time></trkpt>
<trkpt lat="47.31545448" lon="7.22404718"><ele></ele><time>2014-7-4T2:58:41Z</time></trkpt>
<trkpt lat="47.31511116" lon="7.22321033"><ele></ele><time>2014-7-4T2:58:44Z</time></trkpt>
<trkpt lat="47.31489658" lon="7.22312450"><ele></ele><time>2014-7-4T2:58:47Z</time></trkpt>
<trkpt lat="47.31474638" lon="7.22417593"><ele></ele><time>2014-7-4T2:58:50Z</time></trkpt>
<trkpt lat="47.31498241" lon="7.22638607"><ele></ele><time>2014-7-4T2:58:53Z</time></trkpt>
<trkpt lat="47.31487513" lon="7.22720146"><ele></ele><time>2014-7-4T2:58:56Z</time></trkpt>
<trkpt lat="47.31513262" lon="7.22773790"><ele></ele><time>2014-7-4T2:58:59Z</time></trkpt>
<trkpt lat="47.31603384" lon="7.22814560"><ele></ele><time>2014-7-4T2:59:2Z</time></trkpt>
<trkpt lat="47.31680632" lon="7.22765207"><ele></ele><time>2014-7-4T2:59:5Z</time></trkpt>
<trkpt lat="47.31835127" lon="7.22754478"><ele></ele><time>2014-7-4T2:59:8Z</time></trkpt>
<trkpt lat="47.32013226" lon="7.22632170"><ele></ele><time>2014-7-4T2:59:11Z</time></trkpt>
<trkpt lat="47.32023954" lon="7.22606421"><ele></ele><time>2014-7-4T2:59:14Z</time></trkpt>
<trkpt lat="47.32045412" lon="7.22617149"><ele></ele><time>2014-7-4T2:59:17Z</time></trkpt>
<trkpt lat="47.32079744" lon="7.22666502"><ele></ele><time>2014-7-4T2:59:20Z</time></trkpt>
<trkpt lat="47.32073307" lon="7.22741604"><ele></ele><time>2014-7-4T2:59:23Z</time></trkpt>
<trkpt lat="47.32148409" lon="7.22984076"><ele></ele><time>2014-7-4T2:59:26Z</time></trkpt>
<trkpt lat="47.32056141" lon="7.23402500"><ele></ele><time>2014-7-4T2:59:29Z</time></trkpt>
<trkpt lat="47.32146263" lon="7.23711491"><ele></ele><time>2014-7-4T2:59:32Z</time></trkpt>
<trkpt lat="47.32208490" lon="7.23842382"><ele></ele><time>2014-7-4T2:59:35Z</time></trkpt>
<trkpt lat="47.32116222" lon="7.23977566"><ele></ele><time>2014-7-4T2:59:38Z</time></trkpt>
<trkpt lat="47.32111931" lon="7.24009752"><ele></ele><time>2014-7-4T2:59:41Z</time></trkpt>
<trkpt lat="47.32137680" lon="7.24039793"><ele></ele><time>2014-7-4T2:59:44Z</time></trkpt>
<trkpt lat="47.32343674" lon="7.24140644"><ele></ele><time>2014-7-4T2:59:47Z</time></trkpt>
<trkpt lat="47.32169867" lon="7.24125624"><ele></ele><time>2014-7-4T2:59:50Z</time></trkpt>
<trkpt lat="47.32195616" lon="7.24108458"><ele></ele><time>2014-7-4T2:59:53Z</time></trkpt>
<trkpt lat="47.32268572" lon="7.24198580"><ele></ele><time>2014-7-4T2:59:56Z</time></trkpt>
<trkpt lat="47.32253551" lon="7.24335909"><ele></ele><time>2014-7-4T2:59:59Z</time></trkpt>
<trkpt lat="47.32300758" lon="7.24481821"><ele></ele><time>2014-7-4T3:0:2Z</time></trkpt>
<trkpt lat="47.32425213" lon="7.24580526"><ele></ele><time>2014-7-4T3:0:5Z</time></trkpt>
<trkpt lat="47.32395172" lon="7.24726439"><ele></ele><time>2014-7-4T3:0:8Z</time></trkpt>
<trkpt lat="47.32435942" lon="7.24951744"><ele></ele><time>2014-7-4T3:0:11Z</time></trkpt>
<trkpt lat="47.32448816" lon="7.25153446"><ele></ele><time>2014-7-4T3:0:14Z</time></trkpt>
<trkpt lat="47.32440233" lon="7.25174904"><ele></ele><time>2014-7-4T3:0:17Z</time></trkpt>
<trkpt lat="47.32420921" lon="7.25166321"><ele></ele><time>2014-7-4T3:0:20Z</time></trkpt>
<trkpt lat="47.32320070" lon="7.25007534"><ele></ele><time>2014-7-4T3:0:23Z</time></trkpt>
<trkpt lat="47.32240677" lon="7.24786520"><ele></ele><time>2014-7-4T3:0:26Z</time></trkpt>
<trkpt lat="47.32169867" lon="7.24644899"><ele></ele><time>2014-7-4T3:0:29Z</time></trkpt>
<trkpt lat="47.32139826" lon="7.24625587"><ele></ele><time>2014-7-4T3:0:32Z</time></trkpt>
<trkpt lat="47.32109785" lon="7.24647045"><ele></ele><time>2014-7-4T3:0:35Z</time></trkpt>
<trkpt lat="47.32111931" lon="7.24840164"><ele></ele><time>2014-7-4T3:0:38Z</time></trkpt>
<trkpt lat="47.32064724" lon="7.24973202"><ele></ele><time>2014-7-4T3:0:41Z</time></trkpt>
<trkpt lat="47.32045412" lon="7.24977493"><ele></ele><time>2014-7-4T3:0:44Z</time></trkpt>
<trkpt lat="47.32000351" lon="7.24925995"><ele></ele><time>2014-7-4T3:0:47Z</time></trkpt>
<trkpt lat="47.31957436" lon="7.24799395"><ele></ele><time>2014-7-4T3:0:50Z</time></trkpt>
<trkpt lat="47.31935978" lon="7.24683523"><ele></ele><time>2014-7-4T3:0:53Z</time></trkpt>
<trkpt lat="47.31903791" lon="7.24634171"><ele></ele><time>2014-7-4T3:0:56Z</time></trkpt>
<trkpt lat="47.31880188" lon="7.24765062"><ele></ele><time>2014-7-4T3:0:59Z</time></trkpt>
<trkpt lat="47.31888771" lon="7.25026846"><ele></ele><time>2014-7-4T3:1:2Z</time></trkpt>
<trkpt lat="47.31948853" lon="7.25211382"><ele></ele><time>2014-7-4T3:1:5Z</time></trkpt>
<trkpt lat="47.31976748" lon="7.25350857"><ele></ele><time>2014-7-4T3:1:8Z</time></trkpt>
<trkpt lat="47.32041121" lon="7.25438833"><ele></ele><time>2014-7-4T3:1:11Z</time></trkpt>
<trkpt lat="47.32071161" lon="7.25428104"><ele></ele><time>2014-7-4T3:1:14Z</time></trkpt>
<trkpt lat="47.32137680" lon="7.25353003"><ele></ele><time>2014-7-4T3:1:17Z</time></trkpt>
<trkpt lat="47.32156992" lon="7.25350857"><ele></ele><time>2014-7-4T3:1:20Z</time></trkpt>
<trkpt lat="47.32167721" lon="7.25374460"><ele></ele><time>2014-7-4T3:1:23Z</time></trkpt>
<trkpt lat="47.32139826" lon="7.25649118"><ele></ele><time>2014-7-4T3:1:26Z</time></trkpt>
<trkpt lat="47.32077599" lon="7.25711346"><ele></ele><time>2014-7-4T3:1:29Z</time></trkpt>
<trkpt lat="47.32056141" lon="7.25752115"><ele></ele><time>2014-7-4T3:1:32Z</time></trkpt>
<trkpt lat="47.32032537" lon="7.25878716"><ele></ele><time>2014-7-4T3:1:35Z</time></trkpt>
<trkpt lat="47.32053995" lon="7.26050377"><ele></ele><time>2014-7-4T3:1:38Z</time></trkpt>
<trkpt lat="47.32036829" lon="7.26149082"><ele></ele><time>2014-7-4T3:1:41Z</time></trkpt>
<trkpt lat="47.31822252" lon="7.26365805"><ele></ele><time>2014-7-4T3:1:44Z</time></trkpt>
<trkpt lat="47.31732130" lon="7.26344347"><ele></ele><time>2014-7-4T3:1:47Z</time></trkpt>
<trkpt lat="47.31650591" lon="7.26363659"><ele></ele><time>2014-7-4T3:1:50Z</time></trkpt>
<trkpt lat="47.31575489" lon="7.26483822"><ele></ele><time>2014-7-4T3:1:53Z</time></trkpt>
<trkpt lat="47.31631279" lon="7.26535320"><ele></ele><time>2014-7-4T3:1:56Z</time></trkpt>
<trkpt lat="47.31519699" lon="7.26556778"><ele></ele><time>2014-7-4T3:1:59Z</time></trkpt>
<trkpt lat="47.31401682" lon="7.26642609"><ele></ele><time>2014-7-4T3:2:2Z</time></trkpt>
<trkpt lat="47.31326580" lon="7.26807833"><ele></ele><time>2014-7-4T3:2:5Z</time></trkpt>
<trkpt lat="47.31242895" lon="7.26953745"><ele></ele><time>2014-7-4T3:2:8Z</time></trkpt>
<trkpt lat="47.31210709" lon="7.26998806"><ele></ele><time>2014-7-4T3:2:11Z</time></trkpt>
<trkpt lat="47.31184959" lon="7.27011681"><ele></ele><time>2014-7-4T3:2:14Z</time></trkpt>
<trkpt lat="47.31174231" lon="7.27037430"><ele></ele><time>2014-7-4T3:2:17Z</time></trkpt>
<trkpt lat="47.31178522" lon="7.27063179"><ele></ele><time>2014-7-4T3:2:20Z</time></trkpt>
<trkpt lat="47.31206417" lon="7.27078199"><ele></ele><time>2014-7-4T3:2:23Z</time></trkpt>
<trkpt lat="47.31405973" lon="7.26906538"><ele></ele><time>2014-7-4T3:2:26Z</time></trkpt>
<trkpt lat="47.31468201" lon="7.26891518"><ele></ele><time>2014-7-4T3:2:29Z</time></trkpt>
<trkpt lat="47.31575489" lon="7.26932287"><ele></ele><time>2014-7-4T3:2:32Z</time></trkpt>
<trkpt lat="47.31699944" lon="7.27020264"><ele></ele><time>2014-7-4T3:2:35Z</time></trkpt>
<trkpt lat="47.31777191" lon="7.26975203"><ele></ele><time>2014-7-4T3:2:38Z</time></trkpt>
<trkpt lat="47.31779337" lon="7.27149010"><ele></ele><time>2014-7-4T3:2:41Z</time></trkpt>
<trkpt lat="47.31772900" lon="7.27206945"><ele></ele><time>2014-7-4T3:2:44Z</time></trkpt>
<trkpt lat="47.31751442" lon="7.27230549"><ele></ele><time>2014-7-4T3:2:47Z</time></trkpt>
<trkpt lat="47.31661320" lon="7.27213383"><ele></ele><time>2014-7-4T3:2:50Z</time></trkpt>
<trkpt lat="47.31554031" lon="7.27537394"><ele></ele><time>2014-7-4T3:2:53Z</time></trkpt>
<trkpt lat="47.31515408" lon="7.27766991"><ele></ele><time>2014-7-4T3:2:56Z</time></trkpt>
<trkpt lat="47.31519699" lon="7.28080273"><ele></ele><time>2014-7-4T3:2:59Z</time></trkpt>
<trkpt lat="47.31472492" lon="7.28307724"><ele></ele><time>2014-7-4T3:3:2Z</time></trkpt>
<trkpt lat="47.31453180" lon="7.28303432"><ele></ele><time>2014-7-4T3:3:5Z</time></trkpt>
<trkpt lat="47.31414557" lon="7.28232622"><ele></ele><time>2014-7-4T3:3:8Z</time></trkpt>
<trkpt lat="47.31294394" lon="7.28151083"><ele></ele><time>2014-7-4T3:3:11Z</time></trkpt>
<trkpt lat="47.31260061" lon="7.28133917"><ele></ele><time>2014-7-4T3:3:14Z</time></trkpt>
<trkpt lat="47.31232166" lon="7.28151083"><ele></ele><time>2014-7-4T3:3:17Z</time></trkpt>
<trkpt lat="47.31090546" lon="7.28732586"><ele></ele><time>2014-7-4T3:3:20Z</time></trkpt>
<trkpt lat="47.31071234" lon="7.28917122"><ele></ele><time>2014-7-4T3:3:23Z</time></trkpt>
<trkpt lat="47.31051922" lon="7.28953600"><ele></ele><time>2014-7-4T3:3:26Z</time></trkpt>
<trkpt lat="47.31021881" lon="7.28955746"><ele></ele><time>2014-7-4T3:3:29Z</time></trkpt>
<trkpt lat="47.31006861" lon="7.29017973"><ele></ele><time>2014-7-4T3:3:32Z</time></trkpt>
<trkpt lat="47.30998278" lon="7.29449272"><ele></ele><time>2014-7-4T3:3:35Z</time></trkpt>
<trkpt lat="47.30966091" lon="7.29852676"><ele></ele><time>2014-7-4T3:3:38Z</time></trkpt>
<trkpt lat="47.30931759" lon="7.30093002"><ele></ele><time>2014-7-4T3:3:41Z</time></trkpt>
<trkpt lat="47.30929613" lon="7.30335474"><ele></ele><time>2014-7-4T3:3:44Z</time></trkpt>
<trkpt lat="47.30882406" lon="7.30809689"><ele></ele><time>2014-7-4T3:3:47Z</time></trkpt>
<trkpt lat="47.30837345" lon="7.31095076"><ele></ele><time>2014-7-4T3:3:50Z</time></trkpt>
<trkpt lat="47.30843782" lon="7.31311798"><ele></ele><time>2014-7-4T3:3:53Z</time></trkpt>
<trkpt lat="47.30815887" lon="7.31369734"><ele></ele><time>2014-7-4T3:3:56Z</time></trkpt>
<trkpt lat="47.30775118" lon="7.31670141"><ele></ele><time>2014-7-4T3:3:59Z</time></trkpt>
<trkpt lat="47.30785847" lon="7.31869698"><ele></ele><time>2014-7-4T3:4:2Z</time></trkpt>
<trkpt lat="47.30772972" lon="7.32067108"><ele></ele><time>2014-7-4T3:4:5Z</time></trkpt>
<trkpt lat="47.30779409" lon="7.32079983"><ele></ele><time>2014-7-4T3:4:8Z</time></trkpt>
<trkpt lat="47.30798721" lon="7.32028484"><ele></ele><time>2014-7-4T3:4:11Z</time></trkpt>
<trkpt lat="47.30815887" lon="7.32019901"><ele></ele><time>2014-7-4T3:4:14Z</time></trkpt>
<trkpt lat="47.30822325" lon="7.32103586"><ele></ele><time>2014-7-4T3:4:17Z</time></trkpt>
<trkpt lat="47.30845928" lon="7.32125044"><ele></ele><time>2014-7-4T3:4:20Z</time></trkpt>
<trkpt lat="47.30858803" lon="7.32118607"><ele></ele><time>2014-7-4T3:4:23Z</time></trkpt>
<trkpt lat="47.30888844" lon="7.32052088"><ele></ele><time>2014-7-4T3:4:26Z</time></trkpt>
<trkpt lat="47.30970383" lon="7.31517792"><ele></ele><time>2014-7-4T3:4:29Z</time></trkpt>
<trkpt lat="47.31015444" lon="7.31339693"><ele></ele><time>2014-7-4T3:4:32Z</time></trkpt>
<trkpt lat="47.31056213" lon="7.31305361"><ele></ele><time>2014-7-4T3:4:35Z</time></trkpt>
<trkpt lat="47.31090546" lon="7.31245279"><ele></ele><time>2014-7-4T3:4:38Z</time></trkpt>
<trkpt lat="47.31129169" lon="7.30974913"><ele></ele><time>2014-7-4T3:4:41Z</time></trkpt>
<trkpt lat="47.31148481" lon="7.30962038"><ele></ele><time>2014-7-4T3:4:44Z</time></trkpt>
<trkpt lat="47.31169939" lon="7.31067181"><ele></ele><time>2014-7-4T3:4:47Z</time></trkpt>
<trkpt lat="47.31238604" lon="7.31260300"><ele></ele><time>2014-7-4T3:4:50Z</time></trkpt>
<trkpt lat="47.31234312" lon="7.31288195"><ele></ele><time>2014-7-4T3:4:53Z</time></trkpt>
<trkpt lat="47.31290102" lon="7.31369734"><ele></ele><time>2014-7-4T3:4:56Z</time></trkpt>
<trkpt lat="47.31294394" lon="7.31341839"><ele></ele><time>2014-7-4T3:4:59Z</time></trkpt>
<trkpt lat="47.31300831" lon="7.31369734"><ele></ele><time>2014-7-4T3:5:2Z</time></trkpt>
<trkpt lat="47.31311560" lon="7.31313944"><ele></ele><time>2014-7-4T3:5:5Z</time></trkpt>
<trkpt lat="47.31290102" lon="7.31367588"><ele></ele><time>2014-7-4T3:5:8Z</time></trkpt>
<trkpt lat="47.31279373" lon="7.31335402"><ele></ele><time>2014-7-4T3:5:11Z</time></trkpt>
<trkpt lat="47.31300831" lon="7.31294632"><ele></ele><time>2014-7-4T3:5:14Z</time></trkpt>
<trkpt lat="47.31275082" lon="7.31191635"><ele></ele><time>2014-7-4T3:5:17Z</time></trkpt>
<trkpt lat="47.31369495" lon="7.30947018"><ele></ele><time>2014-7-4T3:5:20Z</time></trkpt>
<trkpt lat="47.31502533" lon="7.30732441"><ele></ele><time>2014-7-4T3:5:23Z</time></trkpt>
<trkpt lat="47.31543303" lon="7.30680943"><ele></ele><time>2014-7-4T3:5:26Z</time></trkpt>
<trkpt lat="47.31541157" lon="7.30713129"><ele></ele><time>2014-7-4T3:5:29Z</time></trkpt>
<trkpt lat="47.31622696" lon="7.30650902"><ele></ele><time>2014-7-4T3:5:32Z</time></trkpt>
<trkpt lat="47.31796503" lon="7.30672359"><ele></ele><time>2014-7-4T3:5:35Z</time></trkpt>
<trkpt lat="47.31873751" lon="7.30603695"><ele></ele><time>2014-7-4T3:5:38Z</time></trkpt>
<trkpt lat="47.31839418" lon="7.30831146"><ele></ele><time>2014-7-4T3:5:41Z</time></trkpt>
<trkpt lat="47.31905937" lon="7.30886936"><ele></ele><time>2014-7-4T3:5:44Z</time></trkpt>
<trkpt lat="47.31908083" lon="7.30904102"><ele></ele><time>2014-7-4T3:5:47Z</time></trkpt>
<trkpt lat="47.31925249" lon="7.30904102"><ele></ele><time>2014-7-4T3:5:50Z</time></trkpt>
<trkpt lat="47.32017517" lon="7.30715275"><ele></ele><time>2014-7-4T3:5:53Z</time></trkpt>
<trkpt lat="47.32041121" lon="7.31071472"><ele></ele><time>2014-7-4T3:5:56Z</time></trkpt>
<trkpt lat="47.32122660" lon="7.31067181"><ele></ele><time>2014-7-4T3:5:59Z</time></trkpt>
<trkpt lat="47.32305050" lon="7.31125116"><ele></ele><time>2014-7-4T3:6:2Z</time></trkpt>
<trkpt lat="47.32594728" lon="7.31328964"><ele></ele><time>2014-7-4T3:6:5Z</time></trkpt>
<trkpt lat="47.32635498" lon="7.31425524"><ele></ele><time>2014-7-4T3:6:8Z</time></trkpt>
<trkpt lat="47.32665539" lon="7.31549978"><ele></ele><time>2014-7-4T3:6:11Z</time></trkpt>
<trkpt lat="47.32678413" lon="7.31745243"><ele></ele><time>2014-7-4T3:6:14Z</time></trkpt>
<trkpt lat="47.32702017" lon="7.31813908"><ele></ele><time>2014-7-4T3:6:17Z</time></trkpt>
<trkpt lat="47.32753515" lon="7.31873989"><ele></ele><time>2014-7-4T3:6:20Z</time></trkpt>
<trkpt lat="47.32938051" lon="7.31912613"><ele></ele><time>2014-7-4T3:6:23Z</time></trkpt>
<trkpt lat="47.33279228" lon="7.31908321"><ele></ele><time>2014-7-4T3:6:26Z</time></trkpt>
<trkpt lat="47.33307123" lon="7.31927633"><ele></ele><time>2014-7-4T3:6:29Z</time></trkpt>
<trkpt lat="47.33386517" lon="7.32034922"><ele></ele><time>2014-7-4T3:6:32Z</time></trkpt>
<trkpt lat="47.33427286" lon="7.32047796"><ele></ele><time>2014-7-4T3:6:35Z</time></trkpt>
<trkpt lat="47.33689070" lon="7.32000589"><ele></ele><time>2014-7-4T3:6:38Z</time></trkpt>
<trkpt lat="47.33886480" lon="7.31916904"><ele></ele><time>2014-7-4T3:6:41Z</time></trkpt>
<trkpt lat="47.33940125" lon="7.31865406"><ele></ele><time>2014-7-4T3:6:44Z</time></trkpt>
<trkpt lat="47.34094620" lon="7.31786013"><ele></ele><time>2014-7-4T3:6:47Z</time></trkpt>
<trkpt lat="47.34098911" lon="7.31745243"><ele></ele><time>2014-7-4T3:6:50Z</time></trkpt>
<trkpt lat="47.34107494" lon="7.31770992"><ele></ele><time>2014-7-4T3:6:53Z</time></trkpt>
<trkpt lat="47.34180450" lon="7.31755972"><ele></ele><time>2014-7-4T3:6:56Z</time></trkpt>
<trkpt lat="47.34184742" lon="7.31730223"><ele></ele><time>2014-7-4T3:6:59Z</time></trkpt>
<trkpt lat="47.34120369" lon="7.31498480"><ele></ele><time>2014-7-4T3:7:2Z</time></trkpt>
<trkpt lat="47.34096766" lon="7.31502771"><ele></ele><time>2014-7-4T3:7:5Z</time></trkpt>
<trkpt lat="47.34040976" lon="7.31365442"><ele></ele><time>2014-7-4T3:7:8Z</time></trkpt>
<trkpt lat="47.34058142" lon="7.31277466"><ele></ele><time>2014-7-4T3:7:11Z</time></trkpt>
<trkpt lat="47.33686924" lon="7.30346203"><ele></ele><time>2014-7-4T3:7:14Z</time></trkpt>
<trkpt lat="47.33701944" lon="7.30337620"><ele></ele><time>2014-7-4T3:7:17Z</time></trkpt>
<trkpt lat="47.33699799" lon="7.30316162"><ele></ele><time>2014-7-4T3:7:20Z</time></trkpt>
<trkpt lat="47.33626842" lon="7.30131626"><ele></ele><time>2014-7-4T3:7:23Z</time></trkpt>
<trkpt lat="47.33575344" lon="7.29934216"><ele></ele><time>2014-7-4T3:7:26Z</time></trkpt>
<trkpt lat="47.33545303" lon="7.29728222"><ele></ele><time>2014-7-4T3:7:29Z</time></trkpt>
<trkpt lat="47.33523846" lon="7.28996515"><ele></ele><time>2014-7-4T3:7:32Z</time></trkpt>
<trkpt lat="47.33513117" lon="7.28970766"><ele></ele><time>2014-7-4T3:7:35Z</time></trkpt>
<trkpt lat="47.33478785" lon="7.28949308"><ele></ele><time>2014-7-4T3:7:38Z</time></trkpt>
<trkpt lat="47.33444452" lon="7.28565216"><ele></ele><time>2014-7-4T3:7:41Z</time></trkpt>
<trkpt lat="47.33444452" lon="7.28451490"><ele></ele><time>2014-7-4T3:7:44Z</time></trkpt>
<trkpt lat="47.33455181" lon="7.28425741"><ele></ele><time>2014-7-4T3:7:47Z</time></trkpt>
<trkpt lat="47.33513117" lon="7.28369951"><ele></ele><time>2014-7-4T3:7:50Z</time></trkpt>
<trkpt lat="47.33532429" lon="7.28320599"><ele></ele><time>2014-7-4T3:7:53Z</time></trkpt>
<trkpt lat="47.33530283" lon="7.28204727"><ele></ele><time>2014-7-4T3:7:56Z</time></trkpt>
<trkpt lat="47.33571053" lon="7.28110313"><ele></ele><time>2014-7-4T3:7:59Z</time></trkpt>
<trkpt lat="47.33592510" lon="7.27979422"><ele></ele><time>2014-7-4T3:8:2Z</time></trkpt>
<trkpt lat="47.33568907" lon="7.27784157"><ele></ele><time>2014-7-4T3:8:5Z</time></trkpt>
<trkpt lat="47.33530283" lon="7.27706909"><ele></ele><time>2014-7-4T3:8:8Z</time></trkpt>
<trkpt lat="47.33532429" lon="7.27507353"><ele></ele><time>2014-7-4T3:8:11Z</time></trkpt>
<trkpt lat="47.33560324" lon="7.27393627"><ele></ele><time>2014-7-4T3:8:14Z</time></trkpt>
<trkpt lat="47.33611822" lon="7.27264881"><ele></ele><time>2014-7-4T3:8:17Z</time></trkpt>
<trkpt lat="47.33659029" lon="7.27258444"><ele></ele><time>2014-7-4T3:8:20Z</time></trkpt>
<trkpt lat="47.33665466" lon="7.27093220"><ele></ele><time>2014-7-4T3:8:23Z</time></trkpt>
<trkpt lat="47.33749151" lon="7.27011681"><ele></ele><time>2014-7-4T3:8:26Z</time></trkpt>
<trkpt lat="47.33764172" lon="7.26977348"><ele></ele><time>2014-7-4T3:8:29Z</time></trkpt>
<trkpt lat="47.33890772" lon="7.26507425"><ele></ele><time>2014-7-4T3:8:32Z</time></trkpt>
<trkpt lat="47.33965874" lon="7.26494551"><ele></ele><time>2014-7-4T3:8:35Z</time></trkpt>
<trkpt lat="47.33993769" lon="7.26460218"><ele></ele><time>2014-7-4T3:8:38Z</time></trkpt>
<trkpt lat="47.34103203" lon="7.25760698"><ele></ele><time>2014-7-4T3:8:41Z</time></trkpt>
<trkpt lat="47.34131098" lon="7.25692034"><ele></ele><time>2014-7-4T3:8:44Z</time></trkpt>
<trkpt lat="47.34025955" lon="7.25378752"><ele></ele><time>2014-7-4T3:8:47Z</time></trkpt>
<trkpt lat="47.34058142" lon="7.25288630"><ele></ele><time>2014-7-4T3:8:50Z</time></trkpt>
<trkpt lat="47.33978748" lon="7.25179195"><ele></ele><time>2014-7-4T3:8:53Z</time></trkpt>
<trkpt lat="47.33899355" lon="7.24960327"><ele></ele><time>2014-7-4T3:8:56Z</time></trkpt>
<trkpt lat="47.33882189" lon="7.24941015"><ele></ele><time>2014-7-4T3:8:59Z</time></trkpt>
<trkpt lat="47.33817816" lon="7.24953890"><ele></ele><time>2014-7-4T3:9:2Z</time></trkpt>
</trkseg></trk></gpx>